Аэропорт: Михайловка. Барнаул

ICAO: UNBB

METAR:
2018/07/16 20:00
UNBB 162000Z 01004MPS CAVOK 16/07 Q1005 R06/CLRD66 NOSIG RMK QFE731
METAR:
2018/07/16 18:21
TAF TAF UNBB 161700Z 1618/1718 02003G08MPS 9999 SCT030 
      TEMPO 1621/1702 0600 FG FEW002 SCT030 
      BECMG 1702/1703 03008G14MPS 
      BECMG 1714/1715 01003G08MPS